Airfield :
LOGIN :

Register | Disclaimer

   EN    FR    IT 

 










Legend :    VFR   Marginal VFR   IFR   Intensive IFR   Very Intensive IFR
Visi :
Ceiling :
>= 8 km
>= 3000ft
5 to 8 km
1000 to 3000 ft
1500m to 5 km
500 to 1000 ft
800 to 1500m
200 to 500 ft
< 800m
< 200 ft
Symbols :   Thunderstorms  Fog  Heavy snow  Heavy precipitations  Wind > 20 kt
SIGMETs :     Misc.  Thunderstorms  Icing  Turbulence  Mountain Waves  Volcanic Ashes






- Airport Elevation : 640 ft
- IATA code : AOC


EDAC - Altenburg-Nobitz

CURRENT METAR :
  • 192150Z AUTO 25010KT 9999 // SCT055/// BKN062/// 05/M02 Q1021

EXPIRED METARs :
  • 192120Z AUTO 27012KT 9999 // OVC062/// 05/M02 Q1021
  • 192050Z AUTO 26011KT 9999 // BKN062/// 05/M02 Q1021
  • 192020Z AUTO 26011KT 9999 // OVC067/// 05/M02 Q1020
  • 191950Z AUTO 25011KT 9999 // OVC066/// 05/M01 Q1020
  • 191920Z AUTO 25011KT 9999 // OVC070/// 05/M02 Q1020

TAF TAF EDAC
Valid from the 19 at 18:00 until the 20 at 03:00 UTC


191700Z 1918/2003 27013G23KT 9999 BKN040
BECMG 1918/1921 25008KT



MET'MAP, your aeronautical weather chart ! - Copyright ORBIFLY December 2007 - Disclaimer

ORBIFLY MET'MAP TEAM :

Programming & Development : Alexandra Zaïnal
Concept & original design : Baudouin d'Aumeries
Assistance for programming : Marc-Olivier Méhu
Technical & hardware support : Manuel Goepfert

Contact : metmap@orbifly.com




SOURCES & CREDITS :

   NOAA